Time;durP1;ratioP1;P1;durP2;ratioP2;P2;SDS_P1;SDS_P2;PMS_P1;PMS_P2;Temp;Humidity;BMP_temperature;BMP_pressure;BME280_temperature;BME280_humidity;BME280_pressure;Samples;Min_cycle;Max_cycle;Signal;HPM_P1;HPM_P2
2022/10/31 00:02:19;;;;;;;;;;;14.10;99.90;;;;;;5087440;28;20378;-75
2022/10/31 00:04:46;;;;;;;;;;;14.10;99.90;;;;;;5074492;28;19925;-74
2022/10/31 00:07:13;;;;;;;;;;;14.00;99.90;;;;;;5082308;28;20301;-74
2022/10/31 00:09:40;;;;;;;;;;;14.00;99.90;;;;;;5080622;28;19969;-74
2022/10/31 00:12:07;;;;;;;;;;;14.00;99.90;;;;;;5077242;28;19924;-74
2022/10/31 00:14:34;;;;;;;;;;;14.00;99.90;;;;;;5081341;28;20491;-75
2022/10/31 00:17:02;;;;;;;;;;;14.00;99.90;;;;;;5081310;28;19924;-74
2022/10/31 00:19:29;;;;;;;;;;;13.90;99.90;;;;;;5083304;28;20038;-73
2022/10/31 00:21:56;;;;;;;;;;;13.90;99.90;;;;;;5079652;28;19928;-74
2022/10/31 00:24:23;;;;;;;;;;;13.90;99.90;;;;;;5084312;28;19931;-74
2022/10/31 00:26:49;;;;;;;;;;;13.90;99.90;;;;;;5077552;28;20473;-74
2022/10/31 00:29:16;;;;;;;;;;;13.90;99.90;;;;;;5079395;28;20016;-74
2022/10/31 00:31:43;;;;;;;;;;;13.90;99.90;;;;;;5078215;28;20401;-75
2022/10/31 00:34:11;;;;;;;;;;;13.90;99.90;;;;;;5082788;28;20360;-75
2022/10/31 00:36:38;;;;;;;;;;;13.80;99.90;;;;;;5083210;28;20020;-74
2022/10/31 00:39:05;;;;;;;;;;;13.80;99.90;;;;;;5080925;28;19928;-74
2022/10/31 00:41:32;;;;;;;;;;;13.80;99.90;;;;;;5069255;28;20412;-74
2022/10/31 00:43:59;;;;;;;;;;;13.80;99.90;;;;;;5083454;28;19924;-74
2022/10/31 00:46:26;;;;;;;;;;;13.80;99.90;;;;;;5075730;28;20085;-74
2022/10/31 00:48:52;;;;;;;;;;;13.80;99.90;;;;;;5071285;28;19925;-75
2022/10/31 00:51:20;;;;;;;;;;;13.80;99.90;;;;;;5073847;28;20018;-74
2022/10/31 00:53:47;;;;;;;;;;;13.80;99.90;;;;;;5076952;28;20382;-74
2022/10/31 00:56:14;;;;;;;;;;;13.70;99.90;;;;;;5081013;28;19931;-74
2022/10/31 00:58:42;;;;;;;;;;;13.70;99.90;;;;;;5075801;28;19924;-74
2022/10/31 01:01:09;;;;;;;;;;;13.70;99.90;;;;;;5079676;28;19931;-74
2022/10/31 01:03:38;;;;;;;;;;;13.70;99.90;;;;;;5076302;28;20410;-74
2022/10/31 01:06:06;;;;;;;;;;;13.70;99.90;;;;;;5076033;28;19928;-74
2022/10/31 01:08:35;;;;;;;;;;;13.70;99.90;;;;;;5075813;28;19982;-74
2022/10/31 01:11:03;;;;;;;;;;;13.70;99.90;;;;;;5080955;28;19932;-74
2022/10/31 01:13:30;;;;;;;;;;;13.60;99.90;;;;;;5077489;28;22658;-74
2022/10/31 01:15:57;;;;;;;;;;;13.60;99.90;;;;;;5073204;28;19932;-74
2022/10/31 01:18:26;;;;;;;;;;;13.60;99.90;;;;;;5076129;28;20019;-75
2022/10/31 01:20:59;;;;;;;;;;;13.60;99.90;;;;;;5073667;28;20097;-74
2022/10/31 01:23:26;;;;;;;;;;;13.60;99.90;;;;;;5080817;28;19924;-75
2022/10/31 01:26:01;;;;;;;;;;;13.60;99.90;;;;;;5092600;28;19935;-74
2022/10/31 01:28:28;;;;;;;;;;;13.60;99.90;;;;;;5081162;28;20367;-74
2022/10/31 01:30:54;;;;;;;;;;;13.50;99.90;;;;;;5068102;28;19978;-73
2022/10/31 01:33:21;;;;;;;;;;;13.50;99.90;;;;;;5079985;28;19928;-74
2022/10/31 01:35:48;;;;;;;;;;;13.50;99.90;;;;;;5071241;28;20026;-74
2022/10/31 01:38:15;;;;;;;;;;;13.50;99.90;;;;;;5076699;28;20469;-74
2022/10/31 01:40:41;;;;;;;;;;;13.50;99.90;;;;;;5080405;28;20425;-75
2022/10/31 01:43:12;;;;;;;;;;;13.50;99.90;;;;;;5081232;28;19931;-74
2022/10/31 01:45:39;;;;;;;;;;;13.50;99.90;;;;;;5076231;28;19924;-74
2022/10/31 01:48:06;;;;;;;;;;;13.50;99.90;;;;;;5078032;28;19924;-75
2022/10/31 01:50:36;;;;;;;;;;;13.40;99.90;;;;;;5093372;27;19925;-74
2022/10/31 01:53:03;;;;;;;;;;;13.40;99.90;;;;;;5075782;28;19932;-75
2022/10/31 01:55:32;;;;;;;;;;;13.40;99.90;;;;;;5072755;28;19934;-74
2022/10/31 01:58:02;;;;;;;;;;;13.40;99.90;;;;;;5078582;28;20439;-74
2022/10/31 02:00:31;;;;;;;;;;;13.30;99.90;;;;;;5076476;28;19931;-74
2022/10/31 02:02:59;;;;;;;;;;;13.30;99.90;;;;;;5080752;28;19928;-74
2022/10/31 02:05:27;;;;;;;;;;;13.30;99.90;;;;;;5081927;28;20390;-74
2022/10/31 02:07:56;;;;;;;;;;;13.30;99.90;;;;;;5079333;28;20050;-74
2022/10/31 02:10:28;;;;;;;;;;;13.30;99.90;;;;;;5083416;28;20320;-74
2022/10/31 02:12:57;;;;;;;;;;;13.30;99.90;;;;;;5076381;28;21313;-74
2022/10/31 02:15:24;;;;;;;;;;;13.30;99.90;;;;;;5076802;28;19934;-74
2022/10/31 02:17:53;;;;;;;;;;;13.20;99.90;;;;;;5079250;28;20299;-74
2022/10/31 02:20:22;;;;;;;;;;;13.20;99.90;;;;;;5074127;28;19931;-74
2022/10/31 02:22:57;;;;;;;;;;;13.20;99.90;;;;;;5074166;28;19924;-75
2022/10/31 02:25:34;;;;;;;;;;;13.20;99.90;;;;;;5073380;28;19955;-74
2022/10/31 02:28:15;;;;;;;;;;;13.20;99.90;;;;;;5080701;28;19931;-75
2022/10/31 02:30:52;;;;;;;;;;;13.20;99.90;;;;;;5075463;28;19924;-75
2022/10/31 02:33:23;;;;;;;;;;;13.10;99.90;;;;;;5073380;28;19925;-74
2022/10/31 02:35:53;;;;;;;;;;;13.10;99.90;;;;;;5076032;28;19969;-74
2022/10/31 02:38:25;;;;;;;;;;;13.10;99.90;;;;;;5076877;28;19975;-74
2022/10/31 02:40:57;;;;;;;;;;;13.00;99.90;;;;;;5077703;28;19931;-74
2022/10/31 02:43:46;;;;;;;;;;;13.00;99.90;;;;;;5077832;28;19934;-74
2022/10/31 02:46:17;;;;;;;;;;;12.90;99.90;;;;;;5073664;28;20236;-74
2022/10/31 02:48:45;;;;;;;;;;;12.90;99.90;;;;;;5078457;28;19924;-74
2022/10/31 02:51:12;;;;;;;;;;;12.90;99.90;;;;;;5072631;28;19967;-74
2022/10/31 02:53:39;;;;;;;;;;;12.90;99.90;;;;;;5076256;28;19937;-74
2022/10/31 02:56:12;;;;;;;;;;;12.90;99.90;;;;;;5075372;28;19924;-74
2022/10/31 02:58:41;;;;;;;;;;;12.80;99.90;;;;;;5081661;28;19924;-74
2022/10/31 03:01:18;;;;;;;;;;;12.80;99.90;;;;;;5075009;28;19935;-74
2022/10/31 03:03:54;;;;;;;;;;;12.70;99.90;;;;;;5065583;28;19928;-74
2022/10/31 03:06:24;;;;;;;;;;;12.80;99.90;;;;;;5080668;28;20015;-74
2022/10/31 03:08:57;;;;;;;;;;;12.70;99.90;;;;;;5064976;28;20406;-73
2022/10/31 03:11:26;;;;;;;;;;;12.70;99.90;;;;;;5075996;28;19924;-74
2022/10/31 03:13:57;;;;;;;;;;;12.60;99.90;;;;;;5077401;28;19932;-74
2022/10/31 03:16:28;;;;;;;;;;;12.60;99.90;;;;;;5091936;28;20404;-74
2022/10/31 03:19:00;;;;;;;;;;;12.70;99.90;;;;;;5097675;27;19935;-74
2022/10/31 03:21:29;;;;;;;;;;;12.70;99.90;;;;;;5079643;28;20290;-74
2022/10/31 03:23:57;;;;;;;;;;;12.70;99.90;;;;;;5076409;28;20390;-74
2022/10/31 03:26:25;;;;;;;;;;;12.60;99.90;;;;;;5085751;28;19928;-74
2022/10/31 03:28:57;;;;;;;;;;;12.60;99.90;;;;;;5094311;27;20214;-74
2022/10/31 03:31:26;;;;;;;;;;;12.60;99.90;;;;;;5080735;28;19959;-75
2022/10/31 03:33:53;;;;;;;;;;;12.60;99.90;;;;;;5077971;28;20318;-74
2022/10/31 03:36:21;;;;;;;;;;;12.60;99.90;;;;;;5088034;28;20429;-74
2022/10/31 03:38:48;;;;;;;;;;;12.50;99.90;;;;;;5075705;28;19985;-74
2022/10/31 03:41:20;;;;;;;;;;;12.50;99.90;;;;;;5096681;27;20002;-74
2022/10/31 03:43:51;;;;;;;;;;;12.50;99.90;;;;;;5081222;28;20505;-74
2022/10/31 03:46:17;;;;;;;;;;;12.40;99.90;;;;;;5074911;28;19932;-74
2022/10/31 03:48:44;;;;;;;;;;;12.40;99.90;;;;;;5076239;28;19978;-74
2022/10/31 03:51:14;;;;;;;;;;;12.40;99.90;;;;;;5081709;28;19928;-74
2022/10/31 03:53:45;;;;;;;;;;;12.40;99.90;;;;;;5085001;28;19963;-74
2022/10/31 03:56:19;;;;;;;;;;;12.40;99.90;;;;;;5078466;28;19924;-74
2022/10/31 03:58:48;;;;;;;;;;;12.30;99.90;;;;;;5073976;28;19931;-74
2022/10/31 04:01:17;;;;;;;;;;;12.40;99.90;;;;;;5073286;28;22058;-74
2022/10/31 04:03:45;;;;;;;;;;;12.30;99.90;;;;;;5077643;28;20352;-74
2022/10/31 04:06:14;;;;;;;;;;;12.30;99.90;;;;;;5085470;28;20007;-74
2022/10/31 04:08:43;;;;;;;;;;;12.30;99.90;;;;;;5084439;28;20039;-75
2022/10/31 04:11:14;;;;;;;;;;;12.30;99.90;;;;;;5076333;28;19927;-74
2022/10/31 04:13:44;;;;;;;;;;;12.30;99.90;;;;;;5070539;28;20404;-74
2022/10/31 04:16:15;;;;;;;;;;;12.30;99.90;;;;;;5075511;28;19928;-74
2022/10/31 04:18:42;;;;;;;;;;;12.20;99.90;;;;;;5079509;28;19931;-73
2022/10/31 04:21:09;;;;;;;;;;;12.30;99.90;;;;;;5065912;28;19956;-74
2022/10/31 04:23:36;;;;;;;;;;;12.30;99.90;;;;;;5083399;28;20394;-74
2022/10/31 04:26:12;;;;;;;;;;;12.20;99.90;;;;;;5073852;28;19928;-74
2022/10/31 04:28:41;;;;;;;;;;;12.30;99.90;;;;;;5081515;28;20712;-74
2022/10/31 04:31:09;;;;;;;;;;;12.20;99.90;;;;;;5073086;28;19931;-74
2022/10/31 04:33:38;;;;;;;;;;;12.20;99.90;;;;;;5075122;28;20054;-73
2022/10/31 04:36:05;;;;;;;;;;;12.20;99.90;;;;;;5083773;28;19924;-74
2022/10/31 04:38:32;;;;;;;;;;;12.20;99.90;;;;;;5078581;28;19967;-75
2022/10/31 04:40:59;;;;;;;;;;;12.20;99.90;;;;;;5080960;28;20322;-74
2022/10/31 04:43:45;;;;;;;;;;;12.20;99.90;;;;;;5080952;28;20404;-74
2022/10/31 04:46:14;;;;;;;;;;;12.20;99.90;;;;;;5070551;28;19931;-74
2022/10/31 04:48:41;;;;;;;;;;;12.20;99.90;;;;;;5075675;28;20017;-74
2022/10/31 04:51:08;;;;;;;;;;;12.20;99.90;;;;;;5070635;28;19928;-74
2022/10/31 04:53:35;;;;;;;;;;;12.10;99.90;;;;;;5079610;28;19928;-74
2022/10/31 04:56:40;;;;;;;;;;;12.10;99.90;;;;;;5058380;28;19925;-74
2022/10/31 04:59:15;;;;;;;;;;;12.10;99.90;;;;;;5073076;28;19924;-74
2022/10/31 05:01:52;;;;;;;;;;;12.10;99.90;;;;;;5079473;28;19928;-75
2022/10/31 05:04:25;;;;;;;;;;;12.10;99.90;;;;;;5080507;28;19946;-74
2022/10/31 05:06:52;;;;;;;;;;;12.10;99.90;;;;;;5079508;28;19924;-75
2022/10/31 05:09:19;;;;;;;;;;;12.10;99.90;;;;;;5081296;28;19928;-74
2022/10/31 05:11:46;;;;;;;;;;;12.10;99.90;;;;;;5073601;28;19924;-75
2022/10/31 05:14:35;;;;;;;;;;;12.10;99.90;;;;;;5071275;28;19928;-74
2022/10/31 05:17:20;;;;;;;;;;;12.10;99.90;;;;;;5075822;28;20020;-73
2022/10/31 05:20:10;;;;;;;;;;;12.10;99.90;;;;;;5055860;28;20390;-74
2022/10/31 05:23:00;;;;;;;;;;;12.10;99.90;;;;;;5081358;28;20468;-74
2022/10/31 05:25:28;;;;;;;;;;;12.10;99.90;;;;;;5079231;28;20047;-74
2022/10/31 05:27:55;;;;;;;;;;;12.00;99.90;;;;;;5076361;28;19923;-73
2022/10/31 05:30:25;;;;;;;;;;;12.00;99.90;;;;;;5077475;28;20598;-74
2022/10/31 05:32:52;;;;;;;;;;;12.00;99.90;;;;;;5081214;28;20313;-75
2022/10/31 05:35:52;;;;;;;;;;;12.00;99.90;;;;;;5044793;28;19924;-74
2022/10/31 05:38:41;;;;;;;;;;;12.00;99.90;;;;;;5064715;28;20015;-74
2022/10/31 05:41:17;;;;;;;;;;;11.90;99.90;;;;;;5078990;28;19928;-74
2022/10/31 05:43:47;;;;;;;;;;;11.90;99.90;;;;;;5069204;28;20010;-74
2022/10/31 05:46:16;;;;;;;;;;;11.90;99.90;;;;;;5066727;28;20459;-74
2022/10/31 05:49:02;;;;;;;;;;;11.90;99.90;;;;;;5079302;28;20065;-75
2022/10/31 05:51:47;;;;;;;;;;;11.90;99.90;;;;;;5068556;28;20467;-74
2022/10/31 05:54:14;;;;;;;;;;;11.90;99.90;;;;;;5077311;28;19923;-74
2022/10/31 05:56:41;;;;;;;;;;;11.90;99.90;;;;;;5089085;28;20015;-74
2022/10/31 05:59:08;;;;;;;;;;;11.80;99.90;;;;;;5075562;28;19975;-75
2022/10/31 06:01:36;;;;;;;;;;;11.80;99.90;;;;;;5077178;28;20007;-75
2022/10/31 06:04:06;;;;;;;;;;;11.80;99.90;;;;;;5066375;28;19924;-74
2022/10/31 06:06:35;;;;;;;;;;;11.80;99.90;;;;;;5071347;28;20031;-74
2022/10/31 06:09:02;;;;;;;;;;;11.80;99.90;;;;;;5070667;28;19954;-74
2022/10/31 06:11:33;;;;;;;;;;;11.80;99.90;;;;;;5068118;28;19938;-74
2022/10/31 06:14:02;;;;;;;;;;;11.80;99.90;;;;;;5068448;28;21018;-74
2022/10/31 06:16:51;;;;;;;;;;;11.80;99.90;;;;;;5076988;28;20782;-74
2022/10/31 06:19:37;;;;;;;;;;;11.70;99.90;;;;;;5075089;28;20006;-73
2022/10/31 06:22:04;;;;;;;;;;;11.70;99.90;;;;;;5077559;28;19931;-75
2022/10/31 06:24:33;;;;;;;;;;;11.70;99.90;;;;;;5077076;28;19932;-75
2022/10/31 06:27:04;;;;;;;;;;;11.70;99.90;;;;;;5080141;28;20362;-74
2022/10/31 06:29:31;;;;;;;;;;;11.70;99.90;;;;;;5076404;28;19935;-74
2022/10/31 06:32:12;;;;;;;;;;;11.70;99.90;;;;;;5083386;28;20396;-74
2022/10/31 06:34:43;;;;;;;;;;;11.60;99.90;;;;;;5081708;28;19931;-74
2022/10/31 06:37:13;;;;;;;;;;;11.60;99.90;;;;;;5073776;28;19989;-74
2022/10/31 06:39:43;;;;;;;;;;;11.60;99.90;;;;;;5069300;28;20381;-74
2022/10/31 06:42:12;;;;;;;;;;;11.60;99.90;;;;;;5075830;28;19943;-74
2022/10/31 06:44:38;;;;;;;;;;;11.60;99.90;;;;;;5055821;28;19940;-74
2022/10/31 06:47:50;;;;;;;;;;;11.60;99.90;;;;;;5071330;28;20004;-74
2022/10/31 06:50:23;;;;;;;;;;;11.50;99.90;;;;;;5077979;28;19973;-74
2022/10/31 06:52:51;;;;;;;;;;;11.50;99.90;;;;;;5053156;28;19932;-74
2022/10/31 06:55:18;;;;;;;;;;;11.50;99.90;;;;;;5069835;28;20227;-74
2022/10/31 06:57:50;;;;;;;;;;;11.50;99.90;;;;;;5069934;28;19949;-74
2022/10/31 07:00:17;;;;;;;;;;;11.50;99.90;;;;;;5063267;28;19975;-74
2022/10/31 07:02:55;;;;;;;;;;;11.50;99.90;;;;;;5082849;28;20026;-74
2022/10/31 07:05:23;;;;;;;;;;;11.50;99.90;;;;;;5061103;28;20533;-73
2022/10/31 07:07:52;;;;;;;;;;;11.50;99.90;;;;;;5073294;28;19928;-74
2022/10/31 07:10:19;;;;;;;;;;;11.50;99.90;;;;;;5060505;28;20039;-77
2022/10/31 07:12:55;;;;;;;;;;;11.50;99.90;;;;;;5059613;28;20070;-74
2022/10/31 07:15:21;;;;;;;;;;;11.50;99.90;;;;;;5062469;28;19989;-79
2022/10/31 07:17:49;;;;;;;;;;;11.50;99.90;;;;;;5053209;28;20705;-74
2022/10/31 07:20:17;;;;;;;;;;;11.50;99.90;;;;;;5030661;28;21030;-75
2022/10/31 07:22:44;;;;;;;;;;;11.60;99.90;;;;;;5078252;28;19932;-75
2022/10/31 07:25:12;;;;;;;;;;;11.50;99.90;;;;;;5067237;28;19939;-74
2022/10/31 07:27:58;;;;;;;;;;;11.50;99.90;;;;;;5062318;28;20409;-74
2022/10/31 07:30:25;;;;;;;;;;;11.50;99.90;;;;;;5065828;28;19935;-75
2022/10/31 07:32:56;;;;;;;;;;;11.50;99.90;;;;;;5071739;28;19936;-75
2022/10/31 07:35:25;;;;;;;;;;;11.50;99.90;;;;;;5077063;28;19962;-74
2022/10/31 07:38:07;;;;;;;;;;;11.50;99.90;;;;;;5083064;28;19932;-75
2022/10/31 07:40:33;;;;;;;;;;;11.50;99.90;;;;;;5068522;28;19975;-75
2022/10/31 07:43:01;;;;;;;;;;;11.50;99.90;;;;;;5063490;28;20381;-74
2022/10/31 07:45:52;;;;;;;;;;;11.50;99.90;;;;;;5078166;28;19928;-75
2022/10/31 07:48:37;;;;;;;;;;;11.50;99.90;;;;;;5067693;28;19981;-75
2022/10/31 07:51:24;;;;;;;;;;;11.50;99.90;;;;;;5071678;28;20001;-75
2022/10/31 07:54:12;;;;;;;;;;;11.50;99.90;;;;;;5067231;28;19928;-75
2022/10/31 07:56:39;;;;;;;;;;;11.50;99.90;;;;;;5066291;28;19932;-74
2022/10/31 07:59:07;;;;;;;;;;;11.50;99.90;;;;;;5075266;28;19939;-74
2022/10/31 08:01:34;;;;;;;;;;;11.50;99.90;;;;;;5077362;28;19936;-75
2022/10/31 08:04:27;;;;;;;;;;;11.50;99.90;;;;;;5078533;28;19932;-75
2022/10/31 08:07:14;;;;;;;;;;;11.50;99.90;;;;;;5067342;28;20357;-74
2022/10/31 08:09:45;;;;;;;;;;;11.50;99.90;;;;;;5068905;28;19932;-75
2022/10/31 08:12:21;;;;;;;;;;;11.50;99.90;;;;;;5063058;28;21963;-74
2022/10/31 08:14:49;;;;;;;;;;;11.50;99.90;;;;;;5054976;28;19989;-75
2022/10/31 08:17:18;;;;;;;;;;;11.50;99.90;;;;;;5068154;28;19928;-75
2022/10/31 08:19:59;;;;;;;;;;;11.50;99.90;;;;;;5070490;28;20345;-75
2022/10/31 08:22:32;;;;;;;;;;;11.50;99.90;;;;;;5066461;28;20029;-77
2022/10/31 08:25:01;;;;;;;;;;;11.50;99.90;;;;;;5075361;28;19943;-74
2022/10/31 08:27:28;;;;;;;;;;;11.60;99.90;;;;;;5072146;28;21363;-77
2022/10/31 08:29:58;;;;;;;;;;;11.50;99.90;;;;;;5068846;28;20198;-77
2022/10/31 08:32:25;;;;;;;;;;;11.60;99.90;;;;;;5095177;27;19939;-73
2022/10/31 08:34:58;;;;;;;;;;;11.60;99.90;;;;;;5070601;28;19935;-73
2022/10/31 08:37:45;;;;;;;;;;;11.60;99.90;;;;;;5073534;28;20322;-76
2022/10/31 08:40:12;;;;;;;;;;;11.60;99.90;;;;;;5071898;28;19936;-74
2022/10/31 08:42:40;;;;;;;;;;;11.60;99.90;;;;;;5070445;28;19931;-77
2022/10/31 08:45:08;;;;;;;;;;;11.60;99.90;;;;;;5078955;28;20685;-76
2022/10/31 08:47:35;;;;;;;;;;;11.60;99.90;;;;;;5070443;28;20454;-75
2022/10/31 08:50:03;;;;;;;;;;;11.60;99.90;;;;;;5068480;28;19924;-76
2022/10/31 08:52:33;;;;;;;;;;;11.60;99.90;;;;;;5066254;28;19928;-78
2022/10/31 08:55:04;;;;;;;;;;;11.60;99.90;;;;;;5071365;28;20312;-74
2022/10/31 08:57:55;;;;;;;;;;;11.60;99.90;;;;;;5062706;28;19924;-74
2022/10/31 09:00:22;;;;;;;;;;;11.60;99.90;;;;;;5068379;28;19935;-75
2022/10/31 09:02:57;;;;;;;;;;;11.60;99.90;;;;;;5071836;28;19936;-75
2022/10/31 09:05:24;;;;;;;;;;;11.60;99.90;;;;;;5073549;28;19924;-73
2022/10/31 09:07:51;;;;;;;;;;;11.60;99.90;;;;;;5069414;28;19932;-74
2022/10/31 09:10:21;;;;;;;;;;;11.60;99.90;;;;;;5070074;28;20501;-73
2022/10/31 09:12:47;;;;;;;;;;;11.60;99.90;;;;;;5072485;28;20352;-74
2022/10/31 09:15:50;;;;;;;;;;;11.60;99.90;;;;;;5068267;28;19924;-73
2022/10/31 09:18:22;;;;;;;;;;;11.60;99.90;;;;;;5067120;28;19939;-74
2022/10/31 09:20:55;;;;;;;;;;;11.60;99.90;;;;;;5073255;28;19971;-74
2022/10/31 09:23:23;;;;;;;;;;;11.60;99.90;;;;;;5095236;27;19932;-74
2022/10/31 09:25:54;;;;;;;;;;;11.60;99.90;;;;;;5063748;28;19959;-73
2022/10/31 09:28:35;;;;;;;;;;;11.70;99.90;;;;;;5068162;28;20227;-73
2022/10/31 09:31:07;;;;;;;;;;;11.70;99.90;;;;;;5079884;27;19980;-76
2022/10/31 09:33:55;;;;;;;;;;;11.70;99.90;;;;;;5066017;28;20302;-73
2022/10/31 09:36:37;;;;;;;;;;;11.70;99.90;;;;;;5070528;28;20390;-73
2022/10/31 09:39:05;;;;;;;;;;;11.70;99.90;;;;;;5078216;28;19983;-72
2022/10/31 09:41:43;;;;;;;;;;;11.70;99.90;;;;;;5073121;28;20367;-73
2022/10/31 09:44:15;;;;;;;;;;;11.70;99.90;;;;;;5079703;28;19932;-74
2022/10/31 09:46:47;;;;;;;;;;;11.80;99.90;;;;;;5073044;28;19986;-73
2022/10/31 09:49:25;;;;;;;;;;;11.80;99.90;;;;;;5076233;28;19928;-73
2022/10/31 09:51:54;;;;;;;;;;;11.70;99.90;;;;;;5070321;28;19931;-73
2022/10/31 09:54:29;;;;;;;;;;;11.80;99.90;;;;;;5073331;28;19932;-74
2022/10/31 09:57:00;;;;;;;;;;;11.80;99.90;;;;;;5077497;28;19924;-77
2022/10/31 09:59:29;;;;;;;;;;;11.80;99.90;;;;;;5089753;27;19979;-73
2022/10/31 10:01:58;;;;;;;;;;;11.80;99.90;;;;;;5082035;28;20372;-74
2022/10/31 10:04:34;;;;;;;;;;;11.80;99.90;;;;;;5083179;28;19924;-75
2022/10/31 10:07:14;;;;;;;;;;;11.90;99.90;;;;;;5090399;27;19924;-74
2022/10/31 10:09:45;;;;;;;;;;;11.90;99.90;;;;;;5083101;28;19924;-74
2022/10/31 10:12:39;;;;;;;;;;;11.80;99.90;;;;;;5085793;28;19934;-74
2022/10/31 10:15:18;;;;;;;;;;;11.90;99.90;;;;;;5081155;28;19924;-73
2022/10/31 10:17:50;;;;;;;;;;;11.90;99.90;;;;;;5098409;27;19931;-74
2022/10/31 10:20:26;;;;;;;;;;;11.90;99.90;;;;;;5083606;28;19923;-73
2022/10/31 10:22:56;;;;;;;;;;;11.90;99.90;;;;;;5083185;28;20821;-73
2022/10/31 10:25:24;;;;;;;;;;;11.90;99.90;;;;;;5083664;28;19935;-73
2022/10/31 10:27:58;;;;;;;;;;;12.00;99.90;;;;;;5093459;28;19928;-74
2022/10/31 10:30:31;;;;;;;;;;;12.00;99.90;;;;;;5080054;28;19932;-73
2022/10/31 10:32:59;;;;;;;;;;;12.00;99.90;;;;;;5076200;28;20317;-73
2022/10/31 10:35:28;;;;;;;;;;;12.00;99.90;;;;;;5076935;28;19931;-74
2022/10/31 10:37:59;;;;;;;;;;;12.00;99.90;;;;;;5073678;28;19978;-74
2022/10/31 10:40:27;;;;;;;;;;;12.00;99.90;;;;;;5081126;28;20081;-74
2022/10/31 10:48:35;;;;;;;;;;;12.10;99.90;;;;;;5082888;28;19920;-74
2022/10/31 10:51:02;;;;;;;;;;;12.10;99.90;;;;;;5072559;28;20877;-73
2022/10/31 10:53:48;;;;;;;;;;;12.10;99.90;;;;;;5074583;28;19981;-73
2022/10/31 10:56:19;;;;;;;;;;;12.10;99.90;;;;;;5064174;28;19935;-73
2022/10/31 10:58:48;;;;;;;;;;;12.10;99.90;;;;;;5065985;28;19928;-73
2022/10/31 11:01:16;;;;;;;;;;;12.20;99.90;;;;;;5062158;28;19955;-74
2022/10/31 11:03:42;;;;;;;;;;;12.20;99.90;;;;;;5065684;28;20026;-73
2022/10/31 11:06:17;;;;;;;;;;;12.20;99.90;;;;;;5063849;28;19946;-74
2022/10/31 11:08:44;;;;;;;;;;;12.20;99.90;;;;;;5067358;28;19932;-73
2022/10/31 11:11:15;;;;;;;;;;;12.30;99.90;;;;;;5070799;28;19928;-74
2022/10/31 11:13:43;;;;;;;;;;;12.30;99.90;;;;;;5060496;28;20078;-73
2022/10/31 11:16:13;;;;;;;;;;;12.30;99.90;;;;;;5056316;28;19928;-73
2022/10/31 11:18:42;;;;;;;;;;;12.30;99.90;;;;;;5065052;28;22192;-74
2022/10/31 11:21:20;;;;;;;;;;;12.30;99.90;;;;;;5061333;28;20857;-73
2022/10/31 11:23:47;;;;;;;;;;;12.30;99.90;;;;;;5063522;28;19932;-73
2022/10/31 11:26:19;;;;;;;;;;;12.40;99.90;;;;;;5069270;28;19935;-74
2022/10/31 11:28:56;;;;;;;;;;;12.40;99.90;;;;;;5057910;28;20460;-73
2022/10/31 11:31:25;;;;;;;;;;;12.40;99.90;;;;;;5058272;28;19930;-73
2022/10/31 11:33:56;;;;;;;;;;;12.50;99.90;;;;;;5058898;28;19932;-73
2022/10/31 11:36:24;;;;;;;;;;;12.50;99.90;;;;;;5067082;28;20091;-74
2022/10/31 11:38:52;;;;;;;;;;;12.50;99.90;;;;;;5056658;28;19959;-73
2022/10/31 11:41:21;;;;;;;;;;;12.60;99.90;;;;;;5057890;28;19928;-74
2022/10/31 11:43:51;;;;;;;;;;;12.60;99.90;;;;;;5062073;28;19924;-73
2022/10/31 11:46:21;;;;;;;;;;;12.60;99.90;;;;;;5068592;28;19928;-74
2022/10/31 11:48:50;;;;;;;;;;;12.70;99.90;;;;;;5056509;28;19928;-76
2022/10/31 11:51:21;;;;;;;;;;;12.70;99.90;;;;;;5077896;28;19993;-74
2022/10/31 11:53:51;;;;;;;;;;;12.70;99.90;;;;;;5070286;28;19981;-73
2022/10/31 11:56:18;;;;;;;;;;;12.70;99.90;;;;;;5069844;28;19932;-73
2022/10/31 11:58:55;;;;;;;;;;;12.70;99.90;;;;;;5058638;28;19935;-73
2022/10/31 12:01:25;;;;;;;;;;;12.70;99.90;;;;;;5055073;28;20588;-73
2022/10/31 12:04:03;;;;;;;;;;;12.80;99.90;;;;;;5053496;28;20710;-73
2022/10/31 12:06:32;;;;;;;;;;;12.80;99.90;;;;;;5068635;28;19946;-73
2022/10/31 12:09:00;;;;;;;;;;;12.80;99.90;;;;;;5071898;27;23177;-73
2022/10/31 12:11:41;;;;;;;;;;;12.90;99.90;;;;;;5073456;28;19960;-73
2022/10/31 12:14:20;;;;;;;;;;;12.90;99.90;;;;;;5067922;28;20012;-74
2022/10/31 12:16:49;;;;;;;;;;;12.90;99.90;;;;;;5069337;28;19971;-72
2022/10/31 12:19:23;;;;;;;;;;;12.90;99.90;;;;;;5071889;28;20263;-73
2022/10/31 12:21:58;;;;;;;;;;;13.00;99.90;;;;;;5069156;28;20010;-74
2022/10/31 12:24:36;;;;;;;;;;;13.00;99.90;;;;;;5073410;28;20152;-77
2022/10/31 12:27:09;;;;;;;;;;;13.10;99.90;;;;;;5067961;28;19938;-74
2022/10/31 12:29:46;;;;;;;;;;;13.10;99.90;;;;;;5071326;28;20031;-73
2022/10/31 12:32:18;;;;;;;;;;;13.10;99.90;;;;;;5078800;28;19928;-74
2022/10/31 12:34:52;;;;;;;;;;;13.20;99.90;;;;;;5074726;28;19955;-73
2022/10/31 12:37:25;;;;;;;;;;;13.20;99.90;;;;;;5074352;28;19981;-73
2022/10/31 12:39:57;;;;;;;;;;;13.20;99.90;;;;;;5075022;28;19924;-73
2022/10/31 12:42:40;;;;;;;;;;;13.20;99.90;;;;;;5070882;28;22300;-76
2022/10/31 12:45:18;;;;;;;;;;;13.30;99.90;;;;;;5080711;28;20019;-74
2022/10/31 12:47:58;;;;;;;;;;;13.30;99.90;;;;;;5074966;28;19978;-74
2022/10/31 12:50:36;;;;;;;;;;;13.30;99.90;;;;;;5083862;28;20014;-74
2022/10/31 12:53:12;;;;;;;;;;;13.30;99.90;;;;;;5079569;28;20370;-75
2022/10/31 12:55:46;;;;;;;;;;;13.40;99.90;;;;;;5075398;28;19947;-73
2022/10/31 12:58:18;;;;;;;;;;;13.40;99.90;;;;;;5076431;28;19924;-74
2022/10/31 13:00:49;;;;;;;;;;;13.40;99.90;;;;;;5076111;28;19963;-75
2022/10/31 13:03:23;;;;;;;;;;;13.40;99.90;;;;;;5069002;28;20478;-74
2022/10/31 13:05:52;;;;;;;;;;;13.50;99.90;;;;;;5070723;28;20485;-74
2022/10/31 13:08:21;;;;;;;;;;;13.50;99.90;;;;;;5071492;28;19967;-75
2022/10/31 13:10:49;;;;;;;;;;;13.50;99.90;;;;;;5079182;28;20010;-76
2022/10/31 13:13:19;;;;;;;;;;;13.60;99.90;;;;;;5071491;28;20339;-76
2022/10/31 13:15:48;;;;;;;;;;;13.60;99.90;;;;;;5066792;28;20151;-78
2022/10/31 13:18:26;;;;;;;;;;;13.60;99.90;;;;;;5072593;28;19924;-80
2022/10/31 13:20:55;;;;;;;;;;;13.60;99.90;;;;;;5085716;28;20019;-79
2022/10/31 13:23:25;;;;;;;;;;;13.70;99.90;;;;;;5075635;28;20027;-78
2022/10/31 13:25:54;;;;;;;;;;;13.70;99.90;;;;;;5071663;28;19931;-81
2022/10/31 13:28:25;;;;;;;;;;;13.70;99.90;;;;;;5072770;28;19928;-78
2022/10/31 13:30:52;;;;;;;;;;;13.70;99.90;;;;;;5074599;28;19932;-77
2022/10/31 13:33:21;;;;;;;;;;;13.80;99.90;;;;;;5077512;28;20452;-78
2022/10/31 13:35:52;;;;;;;;;;;13.80;99.90;;;;;;5068308;28;19928;-78
2022/10/31 13:38:23;;;;;;;;;;;13.80;99.90;;;;;;5079034;28;20364;-78
2022/10/31 13:40:57;;;;;;;;;;;13.80;99.90;;;;;;5076976;28;20027;-77
2022/10/31 13:43:29;;;;;;;;;;;13.80;99.90;;;;;;5098363;28;20379;-78
2022/10/31 13:45:56;;;;;;;;;;;13.90;99.90;;;;;;5091117;28;19925;-78
2022/10/31 13:48:38;;;;;;;;;;;13.80;99.90;;;;;;5086201;28;19924;-78
2022/10/31 13:51:07;;;;;;;;;;;13.90;99.90;;;;;;5075211;28;20405;-77
2022/10/31 13:53:39;;;;;;;;;;;13.90;99.90;;;;;;5080399;28;19977;-77
2022/10/31 13:56:14;;;;;;;;;;;13.90;99.90;;;;;;5076715;28;20008;-77
2022/10/31 13:58:43;;;;;;;;;;;14.00;99.90;;;;;;5085276;28;20019;-77
2022/10/31 14:01:16;;;;;;;;;;;14.00;99.90;;;;;;5084145;28;19953;-77
2022/10/31 14:03:44;;;;;;;;;;;14.00;99.90;;;;;;5081857;28;19981;-77
2022/10/31 14:06:11;;;;;;;;;;;14.00;99.90;;;;;;5077643;28;20329;-77
2022/10/31 14:08:41;;;;;;;;;;;14.00;99.90;;;;;;5084664;28;19924;-77
2022/10/31 14:11:09;;;;;;;;;;;14.00;99.90;;;;;;5086862;28;19924;-77
2022/10/31 14:13:41;;;;;;;;;;;14.10;99.90;;;;;;5082935;28;19958;-77
2022/10/31 14:16:17;;;;;;;;;;;14.10;99.90;;;;;;5074492;28;19936;-77
2022/10/31 14:18:47;;;;;;;;;;;14.10;99.90;;;;;;5070226;28;19933;-76
2022/10/31 14:21:16;;;;;;;;;;;14.10;99.90;;;;;;5069113;28;20291;-76
2022/10/31 14:23:44;;;;;;;;;;;14.20;99.90;;;;;;5065787;28;20554;-77
2022/10/31 14:26:20;;;;;;;;;;;14.20;99.90;;;;;;5065946;28;20402;-76
2022/10/31 14:28:47;;;;;;;;;;;14.20;99.90;;;;;;5068625;28;20382;-75
2022/10/31 14:31:28;;;;;;;;;;;14.20;99.90;;;;;;5071214;28;19955;-75
2022/10/31 14:33:55;;;;;;;;;;;14.30;99.90;;;;;;5072126;28;20016;-76
2022/10/31 14:36:24;;;;;;;;;;;14.30;99.90;;;;;;5062181;28;19928;-83
2022/10/31 14:38:55;;;;;;;;;;;14.30;99.90;;;;;;5062569;28;19930;-74
2022/10/31 14:41:38;;;;;;;;;;;14.30;99.90;;;;;;5079706;28;19988;-75
2022/10/31 14:44:16;;;;;;;;;;;14.30;99.90;;;;;;5078996;28;19939;-75
2022/10/31 14:46:49;;;;;;;;;;;14.40;99.90;;;;;;5073058;28;19931;-75
2022/10/31 14:49:43;;;;;;;;;;;14.30;99.90;;;;;;5075161;28;20028;-75